createdAt,value
2016-09-17T00:00:59.536Z,92.3
2016-09-17T00:01:59.202Z,92.49
2016-09-17T00:02:59.467Z,92.49
2016-09-17T00:03:59.434Z,92.59
2016-09-17T00:04:59.403Z,92.3
2016-09-17T00:05:59.069Z,92.49
2016-09-17T00:06:59.337Z,92.3
2016-09-17T00:07:59.304Z,92.21
2016-09-17T00:08:58.969Z,92.4
2016-09-17T00:09:59.236Z,91.63
2016-09-17T00:10:59.203Z,91.83
2016-09-17T00:11:59.169Z,91.68
2016-09-17T00:12:59.137Z,91.44
2016-09-17T00:13:59.102Z,90.96
2016-09-17T00:14:59.067Z,91.06
2016-09-17T00:15:59.038Z,91.39
2016-09-17T00:16:58.700Z,91.25
2016-09-17T00:17:58.668Z,91.3
2016-09-17T00:18:58.944Z,91.3
2016-09-17T00:19:58.905Z,91.3
2016-09-17T00:20:58.873Z,91.2
2016-09-17T00:21:58.834Z,91.25
2016-09-17T00:22:58.516Z,91.59
2016-09-17T00:23:58.466Z,91.02
2016-09-17T00:24:58.735Z,91.25
2016-09-17T00:25:58.828Z,91.35
2016-09-17T00:26:58.671Z,91.73
2016-09-17T00:27:58.332Z,91.25
2016-09-17T00:28:58.603Z,91.02
2016-09-17T00:29:58.573Z,90.92
2016-09-17T00:30:58.539Z,91.59
2016-09-17T00:31:58.200Z,91.25
2016-09-17T00:32:58.470Z,91.02
2016-09-17T00:33:58.440Z,91.35
2016-09-17T00:34:58.401Z,91.25
2016-09-17T00:35:58.369Z,91.35
2016-09-17T00:36:58.034Z,90.96
2016-09-17T00:37:58.320Z,90.96
2016-09-17T00:38:58.268Z,91.06
2016-09-17T00:39:58.236Z,90.96
2016-09-17T00:40:58.207Z,91.35
2016-09-17T00:41:57.869Z,90.87
2016-09-17T00:42:58.132Z,91.16
2016-09-17T00:43:58.103Z,90.96
2016-09-17T00:44:58.071Z,90.96
2016-09-17T00:45:58.042Z,91.06
2016-09-17T00:46:57.711Z,90.87
2016-09-17T00:47:57.668Z,90.96
2016-09-17T00:48:57.636Z,91.06
2016-09-17T00:49:57.603Z,90.77
2016-09-17T00:50:57.880Z,90.96
2016-09-17T00:51:57.842Z,90.96
2016-09-17T00:52:57.809Z,91.35
2016-09-17T00:53:57.773Z,91.06
2016-09-17T00:54:57.752Z,91.06
2016-09-17T00:55:57.706Z,91.06
2016-09-17T00:56:57.674Z,91.35
2016-09-17T00:57:57.651Z,91.44
2016-09-17T00:58:57.610Z,91.16
2016-09-17T00:59:57.576Z,91.06
2016-09-17T01:00:57.541Z,91.16
2016-09-17T01:01:57.508Z,90.96
2016-09-17T01:02:57.473Z,91.06
2016-09-17T01:03:57.444Z,90.77
2016-09-17T01:04:57.106Z,91.06
2016-09-17T01:05:57.376Z,91.35
2016-09-17T01:06:57.341Z,91.63
2016-09-17T01:07:57.321Z,91.63
2016-09-17T01:08:56.980Z,91.63
2016-09-17T01:09:57.240Z,91.16
2016-09-17T01:10:57.210Z,91.06
2016-09-17T01:11:56.875Z,91.25
2016-09-17T01:12:57.152Z,91.63
2016-09-17T01:13:57.112Z,91.3
2016-09-17T01:14:57.078Z,91.25
2016-09-17T01:15:57.054Z,91.63
2016-09-17T01:16:57.020Z,91.2
2016-09-17T01:17:56.678Z,90.82
2016-09-17T01:18:56.947Z,91.3
2016-09-17T01:19:56.912Z,90.82
2016-09-17T01:20:56.878Z,91.11
2016-09-17T01:21:56.848Z,91.68
2016-09-17T01:22:56.815Z,91.3
2016-09-17T01:23:56.782Z,91.2
2016-09-17T01:24:56.751Z,91.59
2016-09-17T01:25:56.715Z,91.59
2016-09-17T01:26:56.385Z,91.49
2016-09-17T01:27:56.650Z,91.11
2016-09-17T01:28:56.314Z,91.88
2016-09-17T01:29:56.581Z,91.59
2016-09-17T01:30:56.248Z,91.68
2016-09-17T01:31:56.517Z,92.25
2016-09-17T01:32:56.480Z,92.07
2016-09-17T01:33:56.449Z,92.35
2016-09-17T01:34:56.420Z,92.54
2016-09-17T01:35:56.382Z,92.74
2016-09-17T01:36:56.351Z,92.25
2016-09-17T01:37:56.316Z,92.83
2016-09-17T01:38:56.287Z,92.83
2016-09-17T01:39:56.251Z,92.83
2016-09-17T01:40:55.913Z,92.93
2016-09-17T01:41:56.186Z,93.5
2016-09-17T01:42:56.154Z,93.5
2016-09-17T01:43:56.123Z,93.5
2016-09-17T01:44:56.083Z,93.12
2016-09-17T01:45:56.054Z,93.5
2016-09-17T01:46:56.021Z,93.69
2016-09-17T01:47:55.991Z,93.31
2016-09-17T01:48:55.955Z,93.4
2016-09-17T01:49:55.923Z,93.6
2016-09-17T01:50:55.888Z,93.69
2016-09-17T01:51:55.855Z,93.69
2016-09-17T01:52:55.819Z,93.88
2016-09-17T01:53:55.783Z,94.07
2016-09-17T01:54:55.756Z,93.88
2016-09-17T01:55:55.719Z,94.46
2016-09-17T01:56:55.690Z,94.46
2016-09-17T01:57:55.350Z,94.26
2016-09-17T01:58:55.318Z,94.36
2016-09-17T01:59:55.591Z,94.36
2016-09-17T02:00:55.552Z,94.36
2016-09-17T02:01:55.524Z,94.36
2016-09-17T02:02:55.489Z,94.36
2016-09-17T02:03:55.456Z,94.07
2016-09-17T02:04:55.429Z,94.07
2016-09-17T02:05:55.083Z,94.17
2016-09-17T02:06:55.054Z,94.07
2016-09-17T02:07:55.321Z,94.07
2016-09-17T02:08:54.996Z,94.26
2016-09-17T02:09:55.259Z,94.46
2016-09-17T02:10:55.230Z,94.74
2016-09-17T02:11:54.892Z,94.46
2016-09-17T02:12:55.156Z,94.74
2016-09-17T02:13:55.124Z,94.36
2016-09-17T02:14:55.091Z,95.03
2016-09-17T02:15:55.057Z,95.12
2016-09-17T02:16:55.025Z,95.12
2016-09-17T02:17:54.989Z,94.93
2016-09-17T02:18:54.959Z,94.84
2016-09-17T02:19:54.923Z,94.93
2016-09-17T02:20:54.889Z,94.93
2016-09-17T02:21:54.860Z,94.74
2016-09-17T02:22:54.824Z,94.74
2016-09-17T02:23:54.788Z,94.65
2016-09-17T02:24:54.758Z,94.84
2016-09-17T02:25:54.724Z,94.74
2016-09-17T02:26:54.685Z,94.74
2016-09-17T02:27:54.357Z,94.55
2016-09-17T02:28:54.623Z,94.84
2016-09-17T02:29:54.591Z,94.84
2016-09-17T02:30:54.556Z,94.84
2016-09-17T02:31:54.523Z,94.65
2016-09-17T02:32:54.187Z,94.93
2016-09-17T02:33:54.457Z,94.55
2016-09-17T02:34:54.428Z,94.93
2016-09-17T02:35:54.086Z,94.93
2016-09-17T02:36:54.360Z,94.84
2016-09-17T02:37:54.325Z,95.12
2016-09-17T02:38:54.290Z,95.03
2016-09-17T02:39:54.258Z,95.03
2016-09-17T02:40:54.224Z,95.03
2016-09-17T02:41:54.189Z,94.55
2016-09-17T02:42:53.855Z,94.84
2016-09-17T02:43:54.121Z,95.03
2016-09-17T02:44:54.091Z,95.22
2016-09-17T02:45:54.057Z,94.74
2016-09-17T02:46:54.023Z,95.22
2016-09-17T02:47:53.990Z,95.41
2016-09-17T02:48:53.958Z,95.12
2016-09-17T02:49:53.923Z,95.32
2016-09-17T02:50:53.888Z,94.74
2016-09-17T02:51:53.854Z,95.32
2016-09-17T02:52:53.820Z,95.22
2016-09-17T02:53:53.789Z,95.51
2016-09-17T02:54:53.755Z,95.51
2016-09-17T02:55:53.418Z,95.61
2016-09-17T02:56:53.689Z,95.41
2016-09-17T02:57:53.661Z,95.12
2016-09-17T02:58:53.624Z,95.22
2016-09-17T02:59:53.591Z,95.32
2016-09-17T03:00:53.558Z,95.32
2016-09-17T03:01:53.521Z,95.32
2016-09-17T03:02:53.489Z,95.7
2016-09-17T03:03:53.455Z,95.32
2016-09-17T03:04:53.423Z,95.51
2016-09-17T03:05:53.392Z,95.79
2016-09-17T03:06:53.356Z,95.61
2016-09-17T03:07:53.319Z,95.7
2016-09-17T03:08:52.986Z,95.7
2016-09-17T03:09:53.254Z,95.7
2016-09-17T03:10:53.222Z,95.51
2016-09-17T03:11:53.184Z,95.61
2016-09-17T03:12:52.854Z,95.79
2016-09-17T03:13:53.121Z,95.79
2016-09-17T03:14:53.088Z,95.7
2016-09-17T03:15:53.070Z,96.27
2016-09-17T03:16:53.024Z,95.7
2016-09-17T03:17:52.991Z,96.08
2016-09-17T03:18:52.952Z,96.18
2016-09-17T03:19:52.922Z,95.89
2016-09-17T03:20:52.888Z,95.89
2016-09-17T03:21:52.854Z,95.79
2016-09-17T03:22:52.820Z,95.89
2016-09-17T03:23:52.787Z,96.08
2016-09-17T03:24:52.757Z,96.18
2016-09-17T03:25:52.718Z,96.08
2016-09-17T03:26:52.694Z,96.18
2016-09-17T03:27:52.654Z,95.98
2016-09-17T03:28:52.619Z,96.08
2016-09-17T03:29:52.587Z,95.98
2016-09-17T03:30:52.553Z,95.7
2016-09-17T03:31:52.521Z,96.18
2016-09-17T03:32:52.186Z,96.08
2016-09-17T03:33:52.455Z,95.89
2016-09-17T03:34:52.119Z,96.08
2016-09-17T03:35:52.389Z,96.27
2016-09-17T03:36:52.356Z,96.18
2016-09-17T03:37:52.322Z,96.18
2016-09-17T03:38:51.990Z,95.98
2016-09-17T03:39:52.256Z,95.89
2016-09-17T03:40:52.219Z,95.89
2016-09-17T03:41:51.885Z,95.89
2016-09-17T03:42:52.155Z,95.98
2016-09-17T03:43:52.122Z,95.79
2016-09-17T03:44:51.786Z,96.08
2016-09-17T03:45:52.056Z,96.18
2016-09-17T03:46:52.022Z,96.08
2016-09-17T03:47:51.991Z,95.79
2016-09-17T03:48:51.961Z,95.7
2016-09-17T03:49:51.926Z,95.7
2016-09-17T03:50:51.587Z,95.61
2016-09-17T03:51:51.858Z,95.61
2016-09-17T03:52:51.824Z,95.7
2016-09-17T03:53:51.788Z,96.18
2016-09-17T03:54:51.758Z,96.18
2016-09-17T03:55:51.433Z,95.89
2016-09-17T03:56:51.689Z,96.08
2016-09-17T03:57:51.656Z,95.7
2016-09-17T03:58:51.625Z,95.89
2016-09-17T03:59:51.595Z,96.08
2016-09-17T04:00:51.254Z,96.08
2016-09-17T04:01:51.522Z,95.98
2016-09-17T04:02:51.490Z,95.98
2016-09-17T04:03:51.463Z,96.18
2016-09-17T04:04:51.427Z,96.08
2016-09-17T04:05:51.099Z,96.08
2016-09-17T04:06:51.363Z,96.08
2016-09-17T04:07:51.323Z,96.08
2016-09-17T04:08:51.289Z,95.79
2016-09-17T04:09:51.255Z,95.7
2016-09-17T04:10:51.228Z,95.7
2016-09-17T04:11:51.188Z,95.89
2016-09-17T04:12:51.156Z,96.08
2016-09-17T04:13:51.126Z,96.27
2016-09-17T04:14:51.101Z,95.7
2016-09-17T04:15:51.057Z,95.89
2016-09-17T04:16:51.021Z,95.61
2016-09-17T04:17:50.988Z,95.51
2016-09-17T04:18:50.956Z,95.61
2016-09-17T04:19:50.622Z,95.41
2016-09-17T04:20:50.889Z,95.41
2016-09-17T04:21:50.556Z,95.12
2016-09-17T04:22:50.823Z,95.36
2016-09-17T04:23:50.806Z,95.32
2016-09-17T04:24:50.765Z,95.46
2016-09-17T04:25:50.727Z,95.32
2016-09-17T04:26:50.697Z,95.61
2016-09-17T04:27:50.657Z,95.41
2016-09-17T04:28:50.622Z,95.51
2016-09-17T04:29:50.593Z,95.22
2016-09-17T04:30:50.559Z,95.03
2016-09-17T04:31:50.227Z,94.93
2016-09-17T04:32:50.193Z,94.74
2016-09-17T04:33:50.458Z,94.93
2016-09-17T04:34:50.425Z,94.55
2016-09-17T04:35:50.092Z,94.65
2016-09-17T04:36:50.367Z,94.74
2016-09-17T04:37:50.326Z,95.17
2016-09-17T04:38:50.294Z,94.84
2016-09-17T04:39:50.261Z,95.12
2016-09-17T04:40:49.926Z,94.84
2016-09-17T04:41:50.202Z,95.03
2016-09-17T04:42:50.160Z,94.36
2016-09-17T04:43:50.131Z,94.36
2016-09-17T04:44:49.794Z,94.6
2016-09-17T04:45:50.067Z,94.65
2016-09-17T04:46:50.031Z,94.65
2016-09-17T04:47:49.994Z,94.5
2016-09-17T04:48:49.658Z,94.55
2016-09-17T04:49:49.933Z,94.26
2016-09-17T04:50:49.895Z,94.31
2016-09-17T04:51:49.864Z,95.12
2016-09-17T04:52:49.833Z,94.65
2016-09-17T04:53:49.797Z,94.84
2016-09-17T04:54:49.763Z,94.74
2016-09-17T04:55:49.731Z,94.84
2016-09-17T04:56:49.699Z,94.93
2016-09-17T04:57:49.363Z,95.17
2016-09-17T04:58:49.630Z,95.51
2016-09-17T04:59:49.596Z,95.12
2016-09-17T05:00:49.564Z,95.32
2016-09-17T05:01:49.231Z,95.22
2016-09-17T05:02:49.500Z,94.74
2016-09-17T05:03:49.165Z,95.51
2016-09-17T05:04:49.437Z,95.22
2016-09-17T05:05:49.403Z,95.51
2016-09-17T05:06:49.066Z,95.32
2016-09-17T05:07:49.031Z,95.32
2016-09-17T05:08:49.301Z,95.51
2016-09-17T05:09:49.264Z,95.22
2016-09-17T05:10:49.232Z,95.03
2016-09-17T05:11:49.199Z,95.51
2016-09-17T05:12:49.167Z,95.41
2016-09-17T05:13:49.157Z,95.51
2016-09-17T05:14:49.101Z,95.41
2016-09-17T05:15:49.068Z,95.7
2016-09-17T05:16:49.034Z,95.7
2016-09-17T05:17:49.002Z,95.61
2016-09-17T05:18:48.967Z,95.79
2016-09-17T05:19:48.634Z,95.51
2016-09-17T05:20:48.904Z,95.7
2016-09-17T05:21:48.870Z,95.32
2016-09-17T05:22:48.836Z,95.32
2016-09-17T05:23:48.808Z,95.03
2016-09-17T05:24:48.771Z,95.32
2016-09-17T05:25:48.737Z,95.22
2016-09-17T05:26:48.711Z,95.32
2016-09-17T05:27:48.367Z,95.51
2016-09-17T05:28:48.639Z,95.7
2016-09-17T05:29:48.603Z,95.61
2016-09-17T05:30:48.573Z,95.51
2016-09-17T05:31:48.537Z,95.32
2016-09-17T05:32:48.503Z,95.12
2016-09-17T05:33:48.469Z,95.22
2016-09-17T05:34:48.439Z,95.32
2016-09-17T05:35:48.402Z,95.03
2016-09-17T05:36:48.383Z,95.22
2016-09-17T05:37:48.338Z,94.93
2016-09-17T05:38:48.002Z,95.12
2016-09-17T05:39:48.275Z,94.65
2016-09-17T05:40:48.237Z,94.89
2016-09-17T05:41:48.204Z,94.46
2016-09-17T05:42:48.174Z,94.26
2016-09-17T05:43:47.837Z,94.17
2016-09-17T05:44:48.105Z,94.36
2016-09-17T05:45:48.071Z,94.55
2016-09-17T05:46:48.039Z,93.98
2016-09-17T05:47:48.006Z,94.17
2016-09-17T05:48:47.974Z,94.12
2016-09-17T05:49:47.637Z,93.88
2016-09-17T05:50:47.914Z,93.74
2016-09-17T05:51:47.874Z,93.26
2016-09-17T05:52:47.839Z,93.69
2016-09-17T05:53:47.809Z,93.16
2016-09-17T05:54:47.774Z,93.55
2016-09-17T05:55:47.743Z,93.35
2016-09-17T05:56:47.702Z,93.55
2016-09-17T05:57:47.380Z,93.26
2016-09-17T05:58:47.640Z,93.64
2016-09-17T05:59:47.618Z,93.45
2016-09-17T06:00:47.271Z,92.97
2016-09-17T06:01:47.543Z,92.88
2016-09-17T06:02:47.510Z,93.16
2016-09-17T06:03:47.175Z,93.07
2016-09-17T06:04:47.441Z,92.11
2016-09-17T06:05:47.414Z,92.78
2016-09-17T06:06:47.074Z,92.4
2016-09-17T06:07:47.043Z,92.11
2016-09-17T06:08:47.008Z,92.3
2016-09-17T06:09:47.274Z,92.21
2016-09-17T06:10:47.248Z,92.49
2016-09-17T06:11:47.211Z,91.73
2016-09-17T06:12:47.178Z,91.63
2016-09-17T06:13:47.144Z,91.53
2016-09-17T06:14:46.810Z,91.73
2016-09-17T06:15:47.081Z,91.63
2016-09-17T06:16:47.050Z,91.92
2016-09-17T06:17:46.721Z,91.63
2016-09-17T06:18:46.983Z,91.83
2016-09-17T06:19:46.953Z,91.25
2016-09-17T06:20:46.914Z,91.25
2016-09-17T06:21:46.883Z,91.63
2016-09-17T06:22:46.849Z,91.53
2016-09-17T06:23:46.819Z,91.06
2016-09-17T06:24:46.785Z,91.44
2016-09-17T06:25:46.749Z,91.11
2016-09-17T06:26:46.716Z,90.96
2016-09-17T06:27:46.688Z,91.11
2016-09-17T06:28:46.650Z,91.11
2016-09-17T06:29:46.623Z,91.01
2016-09-17T06:30:46.588Z,90.91
2016-09-17T06:31:46.556Z,91.01
2016-09-17T06:32:46.523Z,90.72
2016-09-17T06:33:46.190Z,91.3
2016-09-17T06:34:46.456Z,91.11
2016-09-17T06:35:46.119Z,90.82
2016-09-17T06:36:46.088Z,91.11
2016-09-17T06:37:46.353Z,90.91
2016-09-17T06:38:46.325Z,90.82
2016-09-17T06:39:46.291Z,91.01
2016-09-17T06:40:45.956Z,91.2
2016-09-17T06:41:46.226Z,90.63
2016-09-17T06:42:45.889Z,91.01
2016-09-17T06:43:45.860Z,90.82
2016-09-17T06:44:46.131Z,90.19
2016-09-17T06:45:46.098Z,90.05
2016-09-17T06:46:46.063Z,90.24
2016-09-17T06:47:46.033Z,90.15
2016-09-17T06:48:45.998Z,90.19
2016-09-17T06:49:45.967Z,89.72
2016-09-17T06:50:45.935Z,89.72
2016-09-17T06:51:45.900Z,89.33
2016-09-17T06:52:45.867Z,89.23
2016-09-17T06:53:45.535Z,89.52
2016-09-17T06:54:45.502Z,89.23
2016-09-17T06:55:45.773Z,89.33
2016-09-17T06:56:45.436Z,88.76
2016-09-17T06:57:45.708Z,89.14
2016-09-17T06:58:45.674Z,88.8
2016-09-17T06:59:45.645Z,88.51
2016-09-17T07:00:45.306Z,88.13
2016-09-17T07:01:45.588Z,88.32
2016-09-17T07:02:45.547Z,87.94
2016-09-17T07:03:45.517Z,87.74
2016-09-17T07:04:45.486Z,87.65
2016-09-17T07:05:45.451Z,87.27
2016-09-17T07:06:45.419Z,87.08
2016-09-17T07:07:45.083Z,87.27
2016-09-17T07:08:45.355Z,86.07
2016-09-17T07:09:45.321Z,86.16
2016-09-17T07:10:44.990Z,86.07
2016-09-17T07:11:44.956Z,85.01
2016-09-17T07:12:44.927Z,85.39
2016-09-17T07:13:45.198Z,84.77
2016-09-17T07:14:44.862Z,84.38
2016-09-17T07:15:45.134Z,84.19
2016-09-17T07:16:45.102Z,83.14
2016-09-17T07:17:45.069Z,82.94
2016-09-17T07:18:45.038Z,82.37
2016-09-17T07:19:44.713Z,82.03
2016-09-17T07:20:44.978Z,82.03
2016-09-17T07:21:44.943Z,81.93
2016-09-17T07:22:44.608Z,80.97
2016-09-17T07:23:44.883Z,80.4
2016-09-17T07:24:44.549Z,80.4
2016-09-17T07:25:44.821Z,80.3
2016-09-17T07:26:44.788Z,79.63
2016-09-17T07:27:44.754Z,79.19
2016-09-17T07:28:44.723Z,78.7
2016-09-17T07:29:44.694Z,78.42
2016-09-17T07:30:44.666Z,78.42
2016-09-17T07:31:44.329Z,77.84
2016-09-17T07:32:44.299Z,77.46
2016-09-17T07:33:44.570Z,77.36
2016-09-17T07:34:44.540Z,77.31
2016-09-17T07:35:44.506Z,77.01
2016-09-17T07:36:44.479Z,76.34
2016-09-17T07:37:44.148Z,76.34
2016-09-17T07:38:44.421Z,75.96
2016-09-17T07:39:44.084Z,75.57
2016-09-17T07:40:44.360Z,75.2
2016-09-17T07:41:44.327Z,75
2016-09-17T07:42:44.295Z,75.1
2016-09-17T07:43:44.266Z,74.75
2016-09-17T07:44:44.236Z,74.94
2016-09-17T07:45:43.905Z,74.46
2016-09-17T07:46:43.874Z,74.27
2016-09-17T07:47:44.144Z,74.17
2016-09-17T07:48:44.116Z,73.31
2016-09-17T07:49:43.782Z,73.41
2016-09-17T07:50:43.751Z,73.31
2016-09-17T07:51:44.024Z,72.44
2016-09-17T07:52:43.708Z,71.77
2016-09-17T07:53:43.964Z,71.48
2016-09-17T07:54:43.633Z,71.29
2016-09-17T07:55:43.905Z,71.1
2016-09-17T07:56:43.572Z,70.72
2016-09-17T07:57:43.843Z,70.37
2016-09-17T07:58:43.822Z,70.46
2016-09-17T07:59:43.790Z,69.89
2016-09-17T08:00:43.756Z,69.79
2016-09-17T08:01:43.724Z,69.02
2016-09-17T08:02:43.393Z,68.92
2016-09-17T08:03:43.364Z,68.44
2016-09-17T08:04:43.637Z,68.76
2016-09-17T08:05:43.604Z,67.8
2016-09-17T08:06:43.278Z,67.99
2016-09-17T08:07:43.556Z,67.99
2016-09-17T08:08:43.524Z,67.42
2016-09-17T08:09:43.484Z,67.42
2016-09-17T08:10:43.154Z,67.51
2016-09-17T08:11:43.425Z,67.42
2016-09-17T08:12:43.107Z,67.51
2016-09-17T08:13:43.368Z,67.32
2016-09-17T08:14:43.342Z,67.61
2016-09-17T08:15:43.309Z,67.03
2016-09-17T08:16:43.279Z,66.74
2016-09-17T08:17:43.248Z,65.91
2016-09-17T08:18:43.223Z,65.53
2016-09-17T08:19:42.891Z,64.86
2016-09-17T08:20:43.164Z,64.18
2016-09-17T08:21:43.135Z,63.79
2016-09-17T08:22:43.107Z,63.7
2016-09-17T08:23:43.074Z,63.64
2016-09-17T08:24:43.046Z,63.44
2016-09-17T08:25:43.020Z,62.96
2016-09-17T08:26:42.986Z,62.67
2016-09-17T08:27:42.660Z,62.03
2016-09-17T08:28:42.942Z,61.65
2016-09-17T08:29:42.901Z,60.58
2016-09-17T08:30:42.878Z,60.32
2016-09-17T08:31:42.542Z,59.65
2016-09-17T08:32:42.824Z,59.45
2016-09-17T08:33:42.786Z,59
2016-09-17T08:34:42.762Z,58.14
2016-09-17T08:35:42.729Z,57.75
2016-09-17T08:36:42.706Z,56.69
2016-09-17T08:37:42.670Z,56.24
2016-09-17T08:38:42.648Z,55.56
2016-09-17T08:39:42.314Z,55.49
2016-09-17T08:40:42.589Z,54.72
2016-09-17T08:41:42.557Z,54.07
2016-09-17T08:42:42.533Z,53.88
2016-09-17T08:43:42.506Z,53.69
2016-09-17T08:44:42.479Z,53.61
2016-09-17T08:45:42.450Z,52.26
2016-09-17T08:46:42.425Z,51.78
2016-09-17T08:47:42.397Z,51.78
2016-09-17T08:48:42.385Z,51.01
2016-09-17T08:49:42.040Z,50.93
2016-09-17T08:50:42.320Z,50.35
2016-09-17T08:51:41.983Z,50.07
2016-09-17T08:52:41.958Z,49.39
2016-09-17T08:53:42.239Z,49.22
2016-09-17T08:54:41.918Z,49.22
2016-09-17T08:55:42.183Z,48.95
2016-09-17T08:56:42.155Z,48.66
2016-09-17T08:57:42.128Z,48.08
2016-09-17T08:58:42.104Z,47.21
2016-09-17T08:59:42.075Z,46.46
2016-09-17T09:00:41.747Z,46.08
2016-09-17T09:01:41.719Z,44.84
2016-09-17T09:02:41.994Z,44.18
2016-09-17T09:03:41.986Z,43.89
2016-09-17T09:04:41.944Z,43.52
2016-09-17T09:05:41.918Z,43.62
2016-09-17T09:06:41.588Z,43.13
2016-09-17T09:07:41.863Z,42.94
2016-09-17T09:08:41.840Z,42.17
2016-09-17T09:09:41.818Z,41.8
2016-09-17T09:10:41.495Z,41.12
2016-09-17T09:11:41.461Z,40.95
2016-09-17T09:12:41.743Z,39.98
2016-09-17T09:13:41.712Z,39.39
2016-09-17T09:14:41.691Z,38.93
2016-09-17T09:15:41.359Z,38.83
2016-09-17T09:16:41.336Z,38.56
2016-09-17T09:17:41.621Z,38.27
2016-09-17T09:18:41.283Z,37.99
2016-09-17T09:19:41.561Z,36.75
2016-09-17T09:20:41.534Z,36.08
2016-09-17T09:21:41.210Z,36.3
2016-09-17T09:22:41.485Z,35.42
2016-09-17T09:23:41.472Z,34.64
2016-09-17T09:24:41.438Z,35.05
2016-09-17T09:25:41.412Z,34.95
2016-09-17T09:26:41.389Z,33.88
2016-09-17T09:27:41.363Z,33.88
2016-09-17T09:28:41.345Z,33.29
2016-09-17T09:29:41.319Z,33.11
2016-09-17T09:30:40.993Z,33.02
2016-09-17T09:31:41.273Z,32.92
2016-09-17T09:32:41.245Z,32.24
2016-09-17T09:33:41.226Z,32.26
2016-09-17T09:34:41.201Z,32.34
2016-09-17T09:35:40.877Z,32.43
2016-09-17T09:36:41.151Z,31.96
2016-09-17T09:37:41.128Z,31.67
2016-09-17T09:38:41.107Z,31.77
2016-09-17T09:39:41.085Z,31.48
2016-09-17T09:40:41.061Z,30.91
2016-09-17T09:41:41.033Z,29.75
2016-09-17T09:42:41.011Z,28.32
2016-09-17T09:43:40.988Z,27.28
2016-09-17T09:44:40.661Z,27.58
2016-09-17T09:45:40.643Z,28.54
2016-09-17T09:46:40.923Z,29.6
2016-09-17T09:47:40.897Z,29.67
2016-09-17T09:48:40.573Z,29.95
2016-09-17T09:49:40.855Z,29.36
2016-09-17T09:50:40.827Z,29.28
2016-09-17T09:51:40.803Z,28.32
2016-09-17T09:52:40.784Z,27.36
2016-09-17T09:53:40.758Z,26.51
2016-09-17T09:54:40.741Z,26.42
2016-09-17T09:55:40.717Z,26.79
2016-09-17T09:56:40.694Z,28.22
2016-09-17T09:57:40.668Z,29.36
2016-09-17T09:58:40.649Z,30.13
2016-09-17T09:59:40.630Z,30.29
2016-09-17T10:00:40.604Z,30.29
2016-09-17T10:01:40.282Z,30.98
2016-09-17T10:02:40.560Z,31.16
2016-09-17T10:03:40.534Z,31.63
2016-09-17T10:04:40.511Z,32.2
2016-09-17T10:05:40.186Z,32.67
2016-09-17T10:06:40.462Z,33.23
2016-09-17T10:07:40.440Z,33.81
2016-09-17T10:08:40.418Z,33.8
2016-09-17T10:09:40.393Z,33.7
2016-09-17T10:10:40.371Z,33.06
2016-09-17T10:11:40.353Z,32.18
2016-09-17T10:12:40.320Z,29.97
2016-09-17T10:13:40.297Z,28.07
2016-09-17T10:14:40.272Z,25.88
2016-09-17T10:15:40.250Z,25.24
2016-09-17T10:16:39.923Z,24.68
2016-09-17T10:17:40.203Z,24.01
2016-09-17T10:18:40.181Z,23.81
2016-09-17T10:19:40.155Z,24.38
2016-09-17T10:20:40.134Z,23.02
2016-09-17T10:21:39.812Z,21.85
2016-09-17T10:22:40.089Z,20.59
2016-09-17T10:23:39.768Z,19.94
2016-09-17T10:24:40.052Z,19.26
2016-09-17T10:25:40.025Z,18.1
2016-09-17T10:26:40.005Z,17.91
2016-09-17T10:27:39.991Z,17.92
2016-09-17T10:28:39.966Z,17.93
2016-09-17T10:29:39.943Z,17.73
2016-09-17T10:30:39.925Z,17.33
2016-09-17T10:31:39.900Z,16.46
2016-09-17T10:32:39.900Z,15.88
2016-09-17T10:33:39.861Z,16.17
2016-09-17T10:34:39.541Z,15.97
2016-09-17T10:35:39.536Z,16.16
2016-09-17T10:36:39.499Z,15.67
2016-09-17T10:37:39.784Z,15.69
2016-09-17T10:38:39.460Z,15.19
2016-09-17T10:39:39.749Z,14.21
2016-09-17T10:40:39.724Z,14.23
2016-09-17T10:41:39.710Z,13.84
2016-09-17T10:42:39.683Z,14.43
2016-09-17T10:43:39.664Z,15.41
2016-09-17T10:44:39.342Z,15.79
2016-09-17T10:45:39.627Z,16.08
2016-09-17T10:46:39.607Z,15.78
2016-09-17T10:47:39.588Z,15.58
2016-09-17T10:48:39.267Z,15.2
2016-09-17T10:49:39.548Z,14.51
2016-09-17T10:50:39.530Z,14.72
2016-09-17T10:51:39.508Z,14.03
2016-09-17T10:52:39.487Z,13.83
2016-09-17T10:53:39.474Z,13.63
2016-09-17T10:54:39.148Z,14.62
2016-09-17T10:55:39.442Z,15.39
2016-09-17T10:56:39.110Z,15.97
2016-09-17T10:57:39.089Z,15.86
2016-09-17T10:58:39.374Z,16.25
2016-09-17T10:59:39.052Z,16.54
2016-09-17T11:00:39.033Z,15.66
2016-09-17T11:01:39.013Z,16.05
2016-09-17T11:02:39.296Z,15.95
2016-09-17T11:03:39.277Z,15.75
2016-09-17T11:04:38.963Z,16.33
2016-09-17T11:05:39.238Z,16.92
2016-09-17T11:06:39.220Z,17.41
2016-09-17T11:07:38.899Z,17.5
2016-09-17T11:08:39.177Z,18
2016-09-17T11:09:39.164Z,18.29
2016-09-17T11:10:38.832Z,18.66
2016-09-17T11:11:39.118Z,18.46
2016-09-17T11:12:39.098Z,18.17
2016-09-17T11:13:39.075Z,17.67
2016-09-17T11:14:38.753Z,17.96
2016-09-17T11:15:39.035Z,18.15
2016-09-17T11:16:38.716Z,18.15
2016-09-17T11:17:38.998Z,18.44
2016-09-17T11:18:38.983Z,18.82
2016-09-17T11:19:38.949Z,19.02
2016-09-17T11:20:38.932Z,19.8
2016-09-17T11:21:38.909Z,20.38
2016-09-17T11:22:38.888Z,20.66
2016-09-17T11:23:38.572Z,20.86
2016-09-17T11:24:38.855Z,21.13
2016-09-17T11:25:38.523Z,21.91
2016-09-17T11:26:38.807Z,22.27
2016-09-17T11:27:38.784Z,23.14
2016-09-17T11:28:38.456Z,24.11
2016-09-17T11:29:38.746Z,24
2016-09-17T11:30:38.411Z,23.79
2016-09-17T11:31:38.696Z,24.37
2016-09-17T11:32:38.368Z,24.65
2016-09-17T11:33:38.649Z,26.18
2016-09-17T11:34:38.632Z,26.94
2016-09-17T11:35:38.600Z,27.32
2016-09-17T11:36:38.575Z,28.76
2016-09-17T11:37:38.555Z,29.25
2016-09-17T11:38:38.532Z,29.72
2016-09-17T11:39:38.207Z,29.61
2016-09-17T11:40:38.484Z,30.58
2016-09-17T11:41:38.159Z,30.48
2016-09-17T11:42:38.132Z,31.05
2016-09-17T11:43:38.414Z,31.34
2016-09-17T11:44:38.397Z,31.62
2016-09-17T11:45:38.363Z,31.62
2016-09-17T11:46:38.337Z,32
2016-09-17T11:47:38.313Z,32.1
2016-09-17T11:48:38.288Z,32.28
2016-09-17T11:49:38.260Z,32.67
2016-09-17T11:50:38.242Z,32.76
2016-09-17T11:51:38.212Z,33.34
2016-09-17T11:52:38.189Z,33.62
2016-09-17T11:53:38.158Z,33.42
2016-09-17T11:54:38.132Z,33.91
2016-09-17T11:55:38.116Z,34.3
2016-09-17T11:56:37.782Z,34.2
2016-09-17T11:57:37.755Z,34.67
2016-09-17T11:58:38.031Z,34.67
2016-09-17T11:59:38.011Z,34.77
2016-09-17T12:00:37.982Z,34.28
2016-09-17T12:01:37.950Z,34.96
2016-09-17T12:02:37.926Z,34.77
2016-09-17T12:03:37.899Z,34.77
2016-09-17T12:04:37.883Z,34.67
2016-09-17T12:05:37.546Z,34.17
2016-09-17T12:06:37.831Z,34.36
2016-09-17T12:07:37.799Z,34.65
2016-09-17T12:08:37.773Z,34.25
2016-09-17T12:09:37.746Z,35.02
2016-09-17T12:10:37.420Z,34.94
2016-09-17T12:11:37.385Z,34.75
2016-09-17T12:12:37.684Z,35.23
2016-09-17T12:13:37.639Z,35.41
2016-09-17T12:14:37.326Z,35.31
2016-09-17T12:15:37.298Z,35.42
2016-09-17T12:16:37.559Z,35.42
2016-09-17T12:17:37.236Z,35.21
2016-09-17T12:18:37.507Z,34.94
2016-09-17T12:19:37.480Z,34.55
2016-09-17T12:20:37.449Z,34.83
2016-09-17T12:21:37.424Z,35.31
2016-09-17T12:22:37.401Z,35
2016-09-17T12:23:37.375Z,35.78
2016-09-17T12:24:37.342Z,36.34
2016-09-17T12:25:37.018Z,37.3
2016-09-17T12:26:37.311Z,37.6
2016-09-17T12:27:37.264Z,37.7
2016-09-17T12:28:37.252Z,37.62
2016-09-17T12:29:37.215Z,36.46
2016-09-17T12:30:37.184Z,35.86
2016-09-17T12:31:37.156Z,36.36
2016-09-17T12:32:37.127Z,36.53
2016-09-17T12:33:37.106Z,37.04
2016-09-17T12:34:37.071Z,37.04
2016-09-17T12:35:37.051Z,36.84
2016-09-17T12:36:37.021Z,35.78
2016-09-17T12:37:36.693Z,35.2
2016-09-17T12:38:36.970Z,35.2
2016-09-17T12:39:36.940Z,36.05
2016-09-17T12:40:36.916Z,36.34
2016-09-17T12:41:36.588Z,36.82
2016-09-17T12:42:36.862Z,36.55
2016-09-17T12:43:36.533Z,36.46
2016-09-17T12:44:36.805Z,35.88
2016-09-17T12:45:36.778Z,36.16
2016-09-17T12:46:36.752Z,36.38
2016-09-17T12:47:36.426Z,36.28
2016-09-17T12:48:36.702Z,35.89
2016-09-17T12:49:36.367Z,35.41
2016-09-17T12:50:36.649Z,35.12
2016-09-17T12:51:36.616Z,35.21
2016-09-17T12:52:36.294Z,35.21
2016-09-17T12:53:36.565Z,34.92
2016-09-17T12:54:36.537Z,35.21
2016-09-17T12:55:36.224Z,34.92